createdAt,value
2023-04-25T00:00:53.427Z,96805.25
2023-04-25T00:03:20.343Z,96808.66
2023-04-25T00:05:47.216Z,96808.66
2023-04-25T00:08:13.838Z,96809.50
2023-04-25T00:10:40.424Z,96816.31
2023-04-25T00:13:07.281Z,96811.22
2023-04-25T00:15:33.813Z,96811.16
2023-04-25T00:18:00.460Z,96817.16
2023-04-25T00:20:27.122Z,96810.34
2023-04-25T00:22:56.800Z,96811.19
2023-04-25T00:25:23.343Z,96812.81
2023-04-25T00:27:49.850Z,96807.81
2023-04-25T00:30:16.333Z,96813.75
2023-04-25T00:32:42.946Z,96802.72
2023-04-25T00:35:10.251Z,96810.34
2023-04-25T00:37:36.806Z,96807.72
2023-04-25T00:40:03.698Z,96812.03
2023-04-25T00:42:30.781Z,96811.97
2023-04-25T00:44:57.288Z,96805.19
2023-04-25T00:47:23.862Z,96834.13
2023-04-25T00:49:50.494Z,96810.31
2023-04-25T00:52:16.983Z,96807.75
2023-04-25T00:54:43.472Z,96801.69
2023-04-25T00:57:10.012Z,96812.00
2023-04-25T00:59:36.605Z,96804.31
2023-04-25T01:02:03.150Z,96798.28
2023-04-25T01:04:29.870Z,96807.75
2023-04-25T01:06:56.711Z,96802.66
2023-04-25T01:09:23.656Z,96804.28
2023-04-25T01:11:50.481Z,96803.47
2023-04-25T01:14:17.203Z,96799.22
2023-04-25T01:16:43.946Z,96800.94
2023-04-25T01:19:13.620Z,96800.09
2023-04-25T01:21:40.200Z,96807.75
2023-04-25T01:24:07.260Z,96794.94
2023-04-25T01:26:33.832Z,96797.50
2023-04-25T01:29:00.319Z,96802.66
2023-04-25T01:35:44.398Z,96794.09
2023-04-25T01:38:12.679Z,96794.09
2023-04-25T01:40:39.919Z,96798.38
2023-04-25T01:43:06.447Z,96789.00
2023-04-25T01:45:33.972Z,96788.13
2023-04-25T01:48:00.623Z,96789.00
2023-04-25T01:50:27.202Z,96789.88
2023-04-25T01:52:53.936Z,96780.41
2023-04-25T01:55:20.627Z,96791.56
2023-04-25T01:57:47.094Z,96794.09
2023-04-25T02:00:13.947Z,96798.34
2023-04-25T02:02:40.768Z,96789.88
2023-04-25T02:05:08.058Z,96785.56
2023-04-25T02:07:34.584Z,96781.34
2023-04-25T02:10:01.169Z,96781.34
2023-04-25T02:12:28.812Z,96776.25
2023-04-25T02:14:55.617Z,96784.78
2023-04-25T02:17:22.676Z,96773.69
2023-04-25T02:19:49.287Z,96787.31
2023-04-25T02:22:15.803Z,96775.38
2023-04-25T02:24:42.314Z,96776.25
2023-04-25T02:27:08.909Z,96778.78
2023-04-25T02:29:35.600Z,96787.31
2023-04-25T02:32:02.087Z,96781.34
2023-04-25T02:34:28.612Z,96778.78
2023-04-25T02:36:56.047Z,96775.38
2023-04-25T02:39:23.290Z,96772.00
2023-04-25T02:41:49.841Z,96771.13
2023-04-25T02:44:16.350Z,96767.69
2023-04-25T02:46:42.924Z,96761.75
2023-04-25T02:49:09.486Z,96762.59
2023-04-25T02:51:36.144Z,96768.56
2023-04-25T02:54:02.744Z,96754.84
2023-04-25T02:56:29.316Z,96760.03
2023-04-25T02:58:56.014Z,96763.47
2023-04-25T03:01:22.756Z,96762.59
2023-04-25T03:03:49.787Z,96775.38
2023-04-25T03:06:17.004Z,96755.81
2023-04-25T03:08:43.975Z,96753.22
2023-04-25T03:11:10.673Z,96762.59
2023-04-25T03:13:37.367Z,96746.44
2023-04-25T03:16:04.054Z,96759.22
2023-04-25T03:18:30.596Z,96753.22
2023-04-25T03:20:57.074Z,96754.91
2023-04-25T03:23:23.616Z,96761.75
2023-04-25T03:25:50.286Z,96759.16
2023-04-25T03:28:16.845Z,96765.13
2023-04-25T03:30:43.366Z,96757.47
2023-04-25T03:33:09.945Z,96753.22
2023-04-25T03:35:36.514Z,96754.91
2023-04-25T03:38:03.064Z,96743.84
2023-04-25T03:40:29.672Z,96747.25
2023-04-25T03:42:56.248Z,96748.97
2023-04-25T03:45:22.838Z,96746.44
2023-04-25T03:47:49.473Z,96743.88
2023-04-25T03:50:16.018Z,96727.50
2023-04-25T03:52:42.509Z,96744.69
2023-04-25T03:55:09.624Z,96749.00
2023-04-25T03:57:36.232Z,96743.03
2023-04-25T04:00:03.021Z,96734.50
2023-04-25T04:02:29.894Z,96738.81
2023-04-25T04:04:57.759Z,96734.50
2023-04-25T04:07:24.527Z,96738.81
2023-04-25T04:09:51.117Z,96768.56
2023-04-25T04:12:17.641Z,96749.03
2023-04-25T04:14:44.174Z,96752.41
2023-04-25T04:17:10.692Z,96752.41
2023-04-25T04:19:37.247Z,96746.47
2023-04-25T04:22:04.251Z,96750.72
2023-04-25T04:24:30.737Z,96746.47
2023-04-25T04:26:57.878Z,96747.31
2023-04-25T04:29:24.833Z,96748.19
2023-04-25T04:31:51.887Z,96756.69
2023-04-25T04:34:19.340Z,96753.31
2023-04-25T04:36:49.561Z,96749.94
2023-04-25T04:39:16.138Z,96749.94
2023-04-25T04:41:43.845Z,96757.59
2023-04-25T04:44:11.094Z,96756.78
2023-04-25T04:46:42.925Z,96762.72
2023-04-25T04:49:10.614Z,96757.59
2023-04-25T04:51:37.776Z,96759.34
2023-04-25T04:54:04.485Z,96769.56
2023-04-25T04:56:31.975Z,96771.25
2023-04-25T04:58:59.033Z,96764.47
2023-04-25T05:01:27.114Z,96766.16
2023-04-25T05:03:54.554Z,96762.72
2023-04-25T05:06:21.617Z,96762.72
2023-04-25T05:08:48.198Z,96751.69
2023-04-25T05:11:14.761Z,96761.03
2023-04-25T05:13:41.339Z,96758.47
2023-04-25T05:16:07.957Z,96754.22
2023-04-25T05:18:34.515Z,96763.56
2023-04-25T05:21:01.056Z,96758.47
2023-04-25T05:23:28.896Z,96754.19
2023-04-25T05:25:55.614Z,96755.91
2023-04-25T05:28:22.333Z,96757.59
2023-04-25T05:30:49.022Z,96755.00
2023-04-25T05:33:15.765Z,96753.31
2023-04-25T05:35:42.406Z,96756.69
2023-04-25T05:38:09.005Z,96752.41
2023-04-25T05:40:35.652Z,96751.53
2023-04-25T05:43:02.166Z,96754.09
2023-04-25T05:45:28.652Z,96758.34
2023-04-25T05:47:55.419Z,96750.59
2023-04-25T05:50:22.218Z,96749.78
2023-04-25T05:52:48.740Z,96758.28
2023-04-25T05:55:15.887Z,96752.31
2023-04-25T05:57:43.426Z,96714.44
2023-04-25T06:00:10.768Z,96746.38
2023-04-25T06:02:37.452Z,96753.16
2023-04-25T06:05:04.755Z,96759.16
2023-04-25T06:07:31.830Z,96761.69
2023-04-25T06:09:58.424Z,96758.31
2023-04-25T06:12:24.988Z,96751.47
2023-04-25T06:14:51.571Z,96754.03
2023-04-25T06:17:18.060Z,96757.41
2023-04-25T06:19:44.545Z,96752.28
2023-04-25T06:22:11.092Z,96760.81
2023-04-25T06:24:37.774Z,96748.03
2023-04-25T06:27:04.289Z,96761.66
2023-04-25T06:29:30.806Z,96754.00
2023-04-25T06:31:58.121Z,96757.41
2023-04-25T06:34:25.101Z,96752.22
2023-04-25T06:36:51.714Z,96756.56
2023-04-25T06:39:18.301Z,96759.13
2023-04-25T06:41:44.842Z,96761.69
2023-04-25T06:44:11.325Z,96755.72
2023-04-25T06:46:38.690Z,96751.44
2023-04-25T06:49:05.779Z,96758.28
2023-04-25T06:51:32.444Z,96748.06
2023-04-25T06:53:58.982Z,96754.03
2023-04-25T06:56:25.630Z,96759.16
2023-04-25T06:58:52.459Z,96759.97
2023-04-25T07:01:19.280Z,96760.84
2023-04-25T07:03:46.125Z,96761.69
2023-04-25T07:06:12.781Z,96756.59
2023-04-25T07:08:39.334Z,96759.97
2023-04-25T07:11:05.880Z,96753.19
2023-04-25T07:13:32.381Z,96754.06
2023-04-25T07:15:58.906Z,96759.16
2023-04-25T07:18:25.493Z,96758.31
2023-04-25T07:20:52.015Z,96759.16
2023-04-25T07:23:18.615Z,96747.22
2023-04-25T07:25:45.189Z,96751.50
2023-04-25T07:28:11.719Z,96750.66
2023-04-25T07:30:38.331Z,96751.50
2023-04-25T07:33:04.936Z,96743.84
2023-04-25T07:35:31.507Z,96740.44
2023-04-25T07:37:58.120Z,96744.66
2023-04-25T07:40:24.726Z,96750.66
2023-04-25T07:42:51.317Z,96742.13
2023-04-25T07:45:17.994Z,96741.31
2023-04-25T07:47:44.631Z,96742.13
2023-04-25T07:50:12.026Z,96743.81
2023-04-25T07:52:38.675Z,96752.31
2023-04-25T07:55:05.617Z,96740.41
2023-04-25T07:57:32.181Z,96749.78
2023-04-25T07:59:58.773Z,96757.44
2023-04-25T08:02:27.158Z,96747.22
2023-04-25T08:04:53.887Z,96754.03
2023-04-25T08:07:20.659Z,96749.78
2023-04-25T08:09:47.183Z,96757.44
2023-04-25T08:12:13.729Z,96748.94
2023-04-25T08:14:40.793Z,96755.72
2023-04-25T08:17:07.441Z,96756.59
2023-04-25T08:19:33.986Z,96749.78
2023-04-25T08:22:00.503Z,96750.59
2023-04-25T08:24:26.983Z,96751.47
2023-04-25T08:26:53.782Z,96753.16
2023-04-25T08:29:20.404Z,96749.78
2023-04-25T08:31:47.057Z,96750.59
2023-04-25T08:34:13.873Z,96748.06
2023-04-25T08:36:40.575Z,96750.59
2023-04-25T08:39:08.066Z,96760.81
2023-04-25T08:41:34.818Z,96761.69
2023-04-25T08:44:01.487Z,96760.81
2023-04-25T08:46:28.128Z,96739.28
2023-04-25T08:48:57.245Z,96764.25
2023-04-25T08:51:29.016Z,96767.66
2023-04-25T08:53:58.811Z,96746.09
2023-04-25T08:56:29.195Z,96747.75
2023-04-25T08:58:56.390Z,96753.78
2023-04-25T09:01:23.190Z,96755.44
2023-04-25T09:03:50.117Z,96777.81
2023-04-25T09:06:17.400Z,96781.22
2023-04-25T09:08:44.649Z,96775.28
2023-04-25T09:11:11.182Z,96775.25
2023-04-25T09:13:37.851Z,96766.69
2023-04-25T09:16:04.506Z,96771.84
2023-04-25T09:18:32.682Z,96776.91
2023-04-25T09:21:13.153Z,96782.88
2023-04-25T09:23:51.246Z,96780.31
2023-04-25T09:26:19.836Z,96793.91
2023-04-25T09:28:46.926Z,96811.81
2023-04-25T09:31:13.747Z,96822.88
2023-04-25T09:33:41.674Z,96827.09
2023-04-25T09:36:09.878Z,96822.88
2023-04-25T09:38:43.646Z,96828.81
2023-04-25T09:41:10.913Z,96839.88
2023-04-25T09:43:37.738Z,96842.44
2023-04-25T09:46:05.732Z,96839.91
2023-04-25T09:48:32.314Z,96842.47
2023-04-25T09:51:17.180Z,96839.88
2023-04-25T09:53:47.804Z,96839.88
2023-04-25T09:56:14.465Z,96843.31
2023-04-25T09:58:41.406Z,96834.78
2023-04-25T10:01:09.571Z,96821.81
2023-04-25T10:03:37.581Z,96835.63
2023-04-25T10:06:06.001Z,96842.44
2023-04-25T10:08:34.154Z,96835.63
2023-04-25T10:11:01.950Z,96841.59
2023-04-25T10:13:29.668Z,96817.38
2023-04-25T10:15:56.437Z,96834.78
2023-04-25T10:18:23.003Z,96850.97
2023-04-25T10:20:49.654Z,96840.75
2023-04-25T10:23:16.301Z,96836.38
2023-04-25T10:25:42.824Z,96851.81
2023-04-25T10:28:09.318Z,96849.25
2023-04-25T10:30:35.944Z,96867.13
2023-04-25T10:33:03.068Z,96867.13
2023-04-25T10:35:31.092Z,96869.66
2023-04-25T10:38:05.680Z,96871.41
2023-04-25T10:40:35.096Z,96870.53
2023-04-25T10:43:32.469Z,96862.88
2023-04-25T10:46:02.242Z,96856.91
2023-04-25T10:48:29.503Z,96857.78
2023-04-25T10:51:12.107Z,96855.19
2023-04-25T10:53:38.652Z,96856.06
2023-04-25T10:56:37.121Z,96857.75
2023-04-25T10:59:11.353Z,96862.84
2023-04-25T11:01:45.373Z,96847.53
2023-04-25T11:04:24.417Z,96858.63
2023-04-25T11:07:07.443Z,96857.75
2023-04-25T11:09:35.334Z,96854.31
2023-04-25T11:12:01.894Z,96849.22
2023-04-25T11:14:28.489Z,96851.75
2023-04-25T11:16:58.160Z,96843.28
2023-04-25T11:19:26.794Z,96839.88
2023-04-25T11:21:57.203Z,96841.56
2023-04-25T11:24:30.270Z,96842.44
2023-04-25T11:26:57.185Z,96841.56
2023-04-25T11:29:24.666Z,96841.56
2023-04-25T11:31:51.707Z,96846.66
2023-04-25T11:34:19.226Z,96840.66
2023-04-25T11:36:46.278Z,96846.66
2023-04-25T11:39:13.228Z,96839.88
2023-04-25T11:41:41.243Z,96844.97
2023-04-25T11:44:08.182Z,96838.19
2023-04-25T11:46:35.772Z,96844.09
2023-04-25T11:49:02.458Z,96849.22
2023-04-25T11:51:28.995Z,96844.91
2023-04-25T11:53:55.551Z,96848.38
2023-04-25T11:56:22.104Z,96843.97
2023-04-25T11:58:56.007Z,96845.78
2023-04-25T12:01:30.958Z,96835.41
2023-04-25T12:03:58.684Z,96849.19
2023-04-25T12:06:31.675Z,96852.59
2023-04-25T12:09:05.148Z,96855.16
2023-04-25T12:11:35.199Z,96847.50
2023-04-25T12:14:07.654Z,96851.75
2023-04-25T12:16:43.158Z,96843.28
2023-04-25T12:19:09.997Z,96838.06
2023-04-25T12:21:41.229Z,96787.19
2023-04-25T12:24:24.468Z,96850.94
2023-04-25T12:26:51.789Z,96861.13
2023-04-25T12:29:19.554Z,96856.88
2023-04-25T12:31:46.595Z,96863.72
2023-04-25T12:34:13.544Z,96862.00
2023-04-25T12:36:40.510Z,96860.28
2023-04-25T12:39:07.814Z,96866.31
2023-04-25T12:41:35.378Z,96867.97
2023-04-25T12:44:01.917Z,96855.09
2023-04-25T12:46:28.465Z,96862.88
2023-04-25T12:48:58.727Z,96857.78
2023-04-25T12:51:29.608Z,96873.09
2023-04-25T12:53:56.230Z,96873.97
2023-04-25T12:56:24.622Z,96878.22
2023-04-25T12:58:52.498Z,96878.16
2023-04-25T13:01:20.188Z,96873.88
2023-04-25T13:03:47.026Z,96881.59
2023-04-25T13:06:13.980Z,96874.72
2023-04-25T13:08:40.675Z,96881.59
2023-04-25T13:11:07.275Z,96895.19
2023-04-25T13:13:35.233Z,96880.66
2023-04-25T13:16:05.137Z,96897.72
2023-04-25T13:18:31.852Z,96891.69
2023-04-25T13:20:58.906Z,96890.94
2023-04-25T13:23:27.054Z,96896.91
2023-04-25T13:25:53.577Z,96898.59
2023-04-25T13:28:20.121Z,96902.00
2023-04-25T13:30:46.696Z,96901.16
2023-04-25T13:33:13.464Z,96900.28
2023-04-25T13:35:40.313Z,96897.69
2023-04-25T13:38:06.853Z,96902.81
2023-04-25T13:40:33.405Z,96912.19
2023-04-25T13:43:00.237Z,96913.03
2023-04-25T13:45:26.765Z,96912.22
2023-04-25T13:47:53.295Z,96907.13
2023-04-25T13:50:19.951Z,96908.81
2023-04-25T13:52:46.617Z,96911.34
2023-04-25T13:55:13.170Z,96916.47
2023-04-25T13:57:41.382Z,96913.91
2023-04-25T14:00:09.856Z,96922.41
2023-04-25T14:02:36.908Z,96919.03
2023-04-25T14:05:07.895Z,96929.22
2023-04-25T14:07:35.909Z,96916.28
2023-04-25T14:10:02.478Z,96933.47
2023-04-25T14:12:28.969Z,96929.16
2023-04-25T14:14:55.506Z,96934.34
2023-04-25T14:17:22.096Z,96922.28
2023-04-25T14:19:49.143Z,96941.09
2023-04-25T14:22:16.496Z,96939.38
2023-04-25T14:24:43.010Z,96941.13
2023-04-25T14:27:09.633Z,96938.50
2023-04-25T14:29:36.140Z,96934.22
2023-04-25T14:32:03.054Z,96947.09
2023-04-25T14:34:29.574Z,96949.66
2023-04-25T14:36:56.120Z,96945.38
2023-04-25T14:39:22.650Z,96950.47
2023-04-25T14:41:49.230Z,96957.28
2023-04-25T14:44:16.345Z,96963.25
2023-04-25T14:46:42.957Z,96970.91
2023-04-25T14:49:09.522Z,96970.88
2023-04-25T14:51:36.114Z,96975.19
2023-04-25T14:54:02.844Z,96982.84
2023-04-25T14:56:29.342Z,96987.06
2023-04-25T14:58:56.086Z,96992.19
2023-04-25T15:01:23.150Z,96996.44
2023-04-25T15:03:49.919Z,96993.06
2023-04-25T15:06:17.350Z,97005.81
2023-04-25T15:08:43.946Z,97005.00
2023-04-25T15:11:11.971Z,97004.13
2023-04-25T15:13:39.224Z,97003.25
2023-04-25T15:16:06.291Z,97020.31
2023-04-25T15:18:32.814Z,97009.25
2023-04-25T15:20:59.329Z,97016.91
2023-04-25T15:23:28.427Z,97017.72
2023-04-25T15:25:56.225Z,97015.16
2023-04-25T15:28:22.980Z,97017.72
2023-04-25T15:30:49.639Z,97016.84
2023-04-25T15:33:16.243Z,97017.63
2023-04-25T15:35:42.860Z,97024.56
2023-04-25T15:38:11.018Z,97026.25
2023-04-25T15:40:37.522Z,97034.78
2023-04-25T15:43:04.575Z,97020.91
2023-04-25T15:45:32.506Z,97031.31
2023-04-25T15:47:59.157Z,97024.56
2023-04-25T15:50:25.746Z,97019.25
2023-04-25T15:52:52.411Z,97033.91
2023-04-25T15:55:21.067Z,97037.31
2023-04-25T15:57:49.379Z,97031.34
2023-04-25T16:00:17.653Z,97037.31
2023-04-25T16:02:44.888Z,97026.19
2023-04-25T16:05:12.961Z,97027.94
2023-04-25T16:07:40.041Z,97023.53
2023-04-25T16:10:07.579Z,97029.66
2023-04-25T16:12:34.171Z,97023.59
2023-04-25T16:15:00.794Z,97042.41
2023-04-25T16:17:29.641Z,97038.13
2023-04-25T16:19:56.799Z,97035.59
2023-04-25T16:22:23.325Z,97040.69
2023-04-25T16:24:50.401Z,97044.13
2023-04-25T16:27:17.009Z,97047.50
2023-04-25T16:29:43.572Z,97048.31
2023-04-25T16:32:11.106Z,97055.19
2023-04-25T16:34:37.589Z,97044.03
2023-04-25T16:37:04.557Z,97053.41
2023-04-25T16:39:31.082Z,97053.41
2023-04-25T16:41:57.661Z,97057.59
2023-04-25T16:44:24.215Z,97055.09
2023-04-25T16:46:50.802Z,97067.91
2023-04-25T16:49:17.381Z,97071.25
2023-04-25T16:51:43.949Z,97061.84
2023-04-25T16:54:10.504Z,97064.34
2023-04-25T16:56:37.311Z,97071.25
2023-04-25T16:59:03.819Z,97072.13
2023-04-25T17:01:31.193Z,97069.56
2023-04-25T17:03:57.932Z,97071.25
2023-04-25T17:06:24.772Z,97070.34
2023-04-25T17:08:51.570Z,97078.91
2023-04-25T17:11:18.834Z,97083.19
2023-04-25T17:13:45.928Z,97086.56
2023-04-25T17:16:16.434Z,97083.19
2023-04-25T17:18:43.899Z,97089.13
2023-04-25T17:21:10.579Z,97090.00
2023-04-25T17:23:37.194Z,97092.50
2023-04-25T17:26:03.743Z,97099.25
2023-04-25T17:28:30.394Z,97082.88
2023-04-25T17:30:57.480Z,97103.59
2023-04-25T17:33:26.939Z,97101.00
2023-04-25T17:35:54.328Z,97107.84
2023-04-25T17:38:20.973Z,97115.47
2023-04-25T17:40:47.708Z,97114.53
2023-04-25T17:43:14.231Z,97125.72
2023-04-25T17:45:40.744Z,97111.88
2023-04-25T17:48:07.338Z,97137.59
2023-04-25T17:50:33.927Z,97130.78
2023-04-25T17:53:03.661Z,97137.59
2023-04-25T17:55:30.345Z,97137.50
2023-04-25T17:57:57.036Z,97139.31
2023-04-25T18:00:23.570Z,97137.56
2023-04-25T18:02:52.072Z,97147.72
2023-04-25T18:05:19.095Z,97155.44
2023-04-25T18:07:46.015Z,97159.72
2023-04-25T18:10:12.625Z,97160.56
2023-04-25T18:12:39.138Z,97170.78
2023-04-25T18:15:06.925Z,97178.44
2023-04-25T18:17:42.685Z,97179.31
2023-04-25T18:20:15.745Z,97187.84
2023-04-25T18:22:42.952Z,97193.81
2023-04-25T18:25:13.665Z,97199.78
2023-04-25T18:27:40.777Z,97191.22
2023-04-25T18:30:11.204Z,97202.34
2023-04-25T18:32:37.949Z,97205.78
2023-04-25T18:35:04.910Z,97204.03
2023-04-25T18:37:31.498Z,97205.81
2023-04-25T18:39:58.603Z,97208.38
2023-04-25T18:42:25.204Z,97214.22
2023-04-25T18:44:51.726Z,97224.53
2023-04-25T18:47:18.313Z,97227.09
2023-04-25T18:49:45.355Z,97222.81
2023-04-25T18:52:12.903Z,97233.91
2023-04-25T18:54:39.451Z,97220.66
2023-04-25T18:57:06.522Z,97245.78
2023-04-25T18:59:33.432Z,97251.78
2023-04-25T19:02:04.402Z,97254.31
2023-04-25T19:04:31.129Z,97257.69
2023-04-25T19:06:58.024Z,97256.84
2023-04-25T19:09:25.232Z,97266.97
2023-04-25T19:11:51.768Z,97271.28
2023-04-25T19:14:18.397Z,97275.56
2023-04-25T19:16:45.024Z,97272.16
2023-04-25T19:19:11.563Z,97279.81
2023-04-25T19:21:38.292Z,97266.03
2023-04-25T19:24:07.101Z,97274.72
2023-04-25T19:26:33.836Z,97272.13
2023-04-25T19:29:10.601Z,97278.03
2023-04-25T19:31:37.665Z,97258.97
2023-04-25T19:34:05.153Z,97286.59
2023-04-25T19:36:31.959Z,97283.16
2023-04-25T19:39:03.622Z,97283.16
2023-04-25T19:41:31.057Z,97288.28
2023-04-25T19:44:00.718Z,97287.44
2023-04-25T19:46:27.308Z,97293.38
2023-04-25T19:48:53.848Z,97292.53
2023-04-25T19:51:20.984Z,97301.88
2023-04-25T19:53:47.514Z,97300.19
2023-04-25T19:56:14.126Z,97301.88
2023-04-25T19:58:40.775Z,97293.34
2023-04-25T20:01:07.743Z,97295.03
2023-04-25T20:03:34.458Z,97295.03
2023-04-25T20:06:01.032Z,97290.78
2023-04-25T20:08:27.564Z,97300.16
2023-04-25T20:10:54.144Z,97306.06
2023-04-25T20:13:20.667Z,97302.56
2023-04-25T20:15:47.288Z,97308.59
2023-04-25T20:18:13.950Z,97312.03
2023-04-25T20:20:40.549Z,97314.59
2023-04-25T20:23:07.175Z,97312.91
2023-04-25T20:25:33.703Z,97310.38
2023-04-25T20:28:00.283Z,97315.47
2023-04-25T20:30:26.865Z,97301.69
2023-04-25T20:32:53.410Z,97310.31
2023-04-25T20:35:20.071Z,97308.59
2023-04-25T20:37:46.686Z,97305.22
2023-04-25T20:40:13.364Z,97317.09
2023-04-25T20:42:40.433Z,97313.72
2023-04-25T20:45:07.965Z,97310.38
2023-04-25T20:47:34.975Z,97318.88
2023-04-25T20:50:03.987Z,97312.91
2023-04-25T20:52:31.901Z,97314.59
2023-04-25T20:54:58.692Z,97312.03
2023-04-25T20:57:25.865Z,97317.16
2023-04-25T20:59:53.028Z,97314.50
2023-04-25T21:02:19.992Z,97323.97
2023-04-25T21:04:46.749Z,97298.03
2023-04-25T21:07:13.598Z,97312.88
2023-04-25T21:09:45.367Z,97320.56
2023-04-25T21:12:12.118Z,97317.16
2023-04-25T21:14:38.722Z,97323.13
2023-04-25T21:17:05.509Z,97307.69
2023-04-25T21:19:32.290Z,97320.53
2023-04-25T21:21:59.139Z,97316.22
2023-04-25T21:24:27.217Z,97316.28
2023-04-25T21:26:53.812Z,97317.97
2023-04-25T21:29:20.321Z,97323.00
2023-04-25T21:31:46.995Z,97325.63
2023-04-25T21:34:13.606Z,97333.31
2023-04-25T21:36:41.311Z,97328.16
2023-04-25T21:39:07.921Z,97329.72
2023-04-25T21:41:34.507Z,97333.22
2023-04-25T21:44:01.097Z,97336.66
2023-04-25T21:46:27.711Z,97319.44
2023-04-25T21:48:54.777Z,97326.34
2023-04-25T21:51:22.166Z,97331.53
2023-04-25T21:53:48.743Z,97331.53
2023-04-25T21:56:15.600Z,97332.38
2023-04-25T21:58:42.126Z,97345.13
2023-04-25T22:01:09.842Z,97349.38
2023-04-25T22:03:36.510Z,97349.31
2023-04-25T22:06:04.003Z,97353.63
2023-04-25T22:08:30.556Z,97348.41
2023-04-25T22:10:57.223Z,97362.13
2023-04-25T22:13:23.912Z,97358.72
2023-04-25T22:15:50.917Z,97352.66
2023-04-25T22:18:17.902Z,97354.44
2023-04-25T22:20:44.902Z,97358.69
2023-04-25T22:23:12.145Z,97356.94
2023-04-25T22:25:38.871Z,97364.53
2023-04-25T22:28:05.507Z,97358.59
2023-04-25T22:30:32.363Z,97354.38
2023-04-25T22:32:58.980Z,97361.16
2023-04-25T22:35:25.656Z,97362.91
2023-04-25T22:37:52.393Z,97370.56
2023-04-25T22:40:19.066Z,97375.69
2023-04-25T22:42:46.091Z,97364.59
2023-04-25T22:45:12.779Z,97363.66
2023-04-25T22:47:39.532Z,97372.25
2023-04-25T22:50:08.530Z,97366.03
2023-04-25T22:52:35.186Z,97373.03
2023-04-25T22:55:02.894Z,97376.47
2023-04-25T22:57:29.648Z,97373.13
2023-04-25T22:59:56.342Z,97362.81
2023-04-25T23:02:23.200Z,97365.41
2023-04-25T23:04:50.437Z,97363.72
2023-04-25T23:07:17.565Z,97359.25
2023-04-25T23:09:45.117Z,97375.63
2023-04-25T23:12:11.695Z,97370.53
2023-04-25T23:14:38.552Z,97341.19
2023-04-25T23:17:05.239Z,97366.28
2023-04-25T23:19:31.836Z,97370.53
2023-04-25T23:21:58.621Z,97377.34
2023-04-25T23:24:25.928Z,97373.88
2023-04-25T23:26:52.420Z,97379.91
2023-04-25T23:29:18.938Z,97385.00
2023-04-25T23:31:45.622Z,97382.47
2023-04-25T23:34:12.731Z,97387.56
2023-04-25T23:36:39.376Z,97384.13
2023-04-25T23:39:05.918Z,97390.97
2023-04-25T23:41:32.827Z,97391.78
2023-04-25T23:43:59.377Z,97394.34
2023-04-25T23:46:28.324Z,97388.41
2023-04-25T23:48:54.943Z,97393.50
2023-04-25T23:51:21.530Z,97390.13
2023-04-25T23:53:48.056Z,97390.97
2023-04-25T23:56:15.019Z,97391.78
2023-04-25T23:58:41.573Z,97389.25
